Time;durP1;ratioP1;P1;durP2;ratioP2;P2;SDS_P1;SDS_P2;PMS_P1;PMS_P2;Temp;Humidity;BMP_temperature;BMP_pressure;BME280_temperature;BME280_humidity;BME280_pressure;Samples;Min_cycle;Max_cycle;Signal;HPM_P1;HPM_P2
2021/11/02 00:01:31;;;;;;;9.43;1.87;;;8.40;1.00;;;;;;4999452;28;20460;-81
2021/11/02 00:03:56;;;;;;;3.40;1.73;;;8.30;1.00;;;;;;5021460;28;20464;-81
2021/11/02 00:06:22;;;;;;;8.00;2.60;;;8.30;1.00;;;;;;4993299;28;20195;-81
2021/11/02 00:08:48;;;;;;;6.87;2.50;;;8.30;1.00;;;;;;4991765;28;20219;-81
2021/11/02 00:11:14;;;;;;;2.13;1.33;;;8.30;1.00;;;;;;4998854;28;20561;-81
2021/11/02 00:13:43;;;;;;;3.23;1.60;;;8.30;1.00;;;;;;5005531;28;20525;-81
2021/11/02 00:16:12;;;;;;;9.37;1.80;;;8.30;1.00;;;;;;5002528;28;20470;-81
2021/11/02 00:18:44;;;;;;;5.60;1.47;;;8.30;1.00;;;;;;5002221;28;20570;-81
2021/11/02 00:21:10;;;;;;;6.40;1.50;;;8.20;1.00;;;;;;5000351;28;20526;-81
2021/11/02 00:23:37;;;;;;;3.57;1.37;;;8.30;1.00;;;;;;5005581;28;20461;-80
2021/11/02 00:26:10;;;;;;;9.90;2.07;;;8.20;1.00;;;;;;5001078;28;20511;-80
2021/11/02 00:28:37;;;;;;;6.43;1.80;;;8.30;1.00;;;;;;4998333;28;20708;-80
2021/11/02 00:31:03;;;;;;;2.97;1.40;;;8.30;1.00;;;;;;4995671;28;20450;-80
2021/11/02 00:33:29;;;;;;;4.73;1.70;;;8.40;1.00;;;;;;5001440;28;20524;-80
2021/11/02 00:35:56;;;;;;;5.00;1.67;;;8.40;1.00;;;;;;4997750;28;21172;-80
2021/11/02 00:38:23;;;;;;;11.13;1.73;;;8.50;1.00;;;;;;5002152;28;20267;-79
2021/11/02 00:40:49;;;;;;;3.80;1.83;;;8.60;1.00;;;;;;5002239;28;20478;-82
2021/11/02 00:43:15;;;;;;;5.00;1.80;;;8.70;1.00;;;;;;5003044;28;20454;-81
2021/11/02 00:45:41;;;;;;;5.33;2.40;;;8.70;1.00;;;;;;4997889;28;20238;-80
2021/11/02 00:48:12;;;;;;;4.60;1.57;;;8.70;1.00;;;;;;5001699;28;20446;-80
2021/11/02 00:50:39;;;;;;;8.70;1.73;;;8.80;1.00;;;;;;5003199;28;20509;-80
2021/11/02 00:53:06;;;;;;;6.97;1.50;;;8.80;1.00;;;;;;4997841;28;20525;-80
2021/11/02 00:55:33;;;;;;;5.93;2.03;;;8.80;1.00;;;;;;5004838;28;20507;-80
2021/11/02 00:58:02;;;;;;;5.67;2.03;;;8.80;1.00;;;;;;5004564;28;20549;-81
2021/11/02 01:00:28;;;;;;;3.80;2.53;;;8.80;1.00;;;;;;5002436;28;20454;-81
2021/11/02 01:02:54;;;;;;;8.20;2.40;;;8.80;1.00;;;;;;5002209;28;20454;-80
2021/11/02 01:05:21;;;;;;;9.30;2.17;;;8.90;1.00;;;;;;5004856;28;20191;-80
2021/11/02 01:07:47;;;;;;;3.00;1.23;;;8.90;1.00;;;;;;5000544;28;20474;-81
2021/11/02 01:10:16;;;;;;;4.40;1.50;;;9.00;1.00;;;;;;5001287;28;20519;-81
2021/11/02 01:12:46;;;;;;;11.03;1.37;;;9.00;1.00;;;;;;5001020;28;20449;-81
2021/11/02 01:15:14;;;;;;;3.63;1.50;;;9.10;1.00;;;;;;5000850;28;20465;-81
2021/11/02 01:17:40;;;;;;;5.60;1.77;;;9.10;1.00;;;;;;5003234;28;20622;-81
2021/11/02 01:20:07;;;;;;;3.97;1.70;;;9.10;1.00;;;;;;4999273;28;20466;-81
2021/11/02 01:22:33;;;;;;;5.00;1.57;;;9.00;1.00;;;;;;4999439;28;20184;-82
2021/11/02 01:25:00;;;;;;;4.10;1.30;;;9.00;1.00;;;;;;5004157;28;20454;-81
2021/11/02 01:27:25;;;;;;;13.00;3.07;;;8.90;1.00;;;;;;5001052;28;20448;-81
2021/11/02 01:29:51;;;;;;;5.20;1.90;;;8.90;1.00;;;;;;4999667;28;20498;-80
2021/11/02 01:32:17;;;;;;;6.40;1.87;;;8.90;1.00;;;;;;5002707;28;20466;-80
2021/11/02 01:34:47;;;;;;;2.93;1.30;;;9.00;1.00;;;;;;5000129;28;20183;-81
2021/11/02 01:37:13;;;;;;;10.47;2.40;;;9.00;1.00;;;;;;4998545;28;21086;-80
2021/11/02 01:39:39;;;;;;;4.13;1.73;;;8.90;1.00;;;;;;4998855;28;20192;-81
2021/11/02 01:42:08;;;;;;;5.50;2.07;;;9.00;1.00;;;;;;5002582;28;20244;-81
2021/11/02 01:44:33;;;;;;;7.40;1.50;;;9.00;1.00;;;;;;5002229;28;20470;-80
2021/11/02 01:46:59;;;;;;;3.67;1.57;;;9.00;1.00;;;;;;4996967;28;20188;-81
2021/11/02 01:49:25;;;;;;;3.10;1.33;;;9.00;1.00;;;;;;5005101;28;20227;-81
2021/11/02 01:51:51;;;;;;;8.00;1.93;;;9.00;1.00;;;;;;5001897;28;20510;-81
2021/11/02 01:54:18;;;;;;;7.17;2.00;;;9.10;1.00;;;;;;5022440;28;20592;-81
2021/11/02 01:56:51;;;;;;;6.30;1.60;;;9.10;1.00;;;;;;4993703;28;20196;-81
2021/11/02 01:59:22;;;;;;;13.20;2.03;;;9.10;1.00;;;;;;4998670;28;20454;-81
2021/11/02 02:02:31;;;;;;;4.30;2.47;;;9.00;1.00;;;;;;4994477;28;20477;-81
2021/11/02 02:05:09;;;;;;;8.10;1.60;;;9.10;1.00;;;;;;5013386;28;20452;-81
2021/11/02 02:08:06;;;;;;;4.70;1.47;;;9.00;1.00;;;;;;5001455;28;20533;-81
2021/11/02 02:10:41;;;;;;;8.30;1.60;;;9.10;1.00;;;;;;4998673;28;20631;-81
2021/11/02 02:13:24;;;;;;;2.83;1.30;;;9.00;1.00;;;;;;4996306;28;20505;-81
2021/11/02 02:16:10;;;;;;;12.33;2.03;;;8.90;1.00;;;;;;5001351;28;20519;-81
2021/11/02 02:19:04;;;;;;;4.77;1.40;;;9.00;1.00;;;;;;4999022;28;20445;-80
2021/11/02 02:22:04;;;;;;;6.63;2.30;;;9.00;1.00;;;;;;5003440;28;20446;-81
2021/11/02 02:24:40;;;;;;;5.37;2.00;;;9.00;1.00;;;;;;5001411;28;20786;-80
2021/11/02 02:27:44;;;;;;;5.40;1.90;;;9.00;1.00;;;;;;5003362;28;20448;-80
2021/11/02 02:30:14;;;;;;;5.27;1.87;;;9.00;1.00;;;;;;4996514;28;20565;-80
2021/11/02 02:32:45;;;;;;;3.57;1.80;;;9.00;1.00;;;;;;5001955;28;20457;-80
2021/11/02 02:35:18;;;;;;;2.83;1.53;;;9.00;1.00;;;;;;5006071;28;21239;-80
2021/11/02 02:37:48;;;;;;;4.10;1.47;;;9.00;1.00;;;;;;5002967;28;20430;-81
2021/11/02 02:40:14;;;;;;;4.03;1.73;;;9.00;1.00;;;;;;5006894;28;20927;-80
2021/11/02 02:42:43;;;;;;;2.67;1.80;;;9.00;1.00;;;;;;5007212;28;20457;-81
2021/11/02 02:45:14;;;;;;;4.87;1.80;;;9.00;1.00;;;;;;5009006;28;20458;-81
2021/11/02 02:47:45;;;;;;;5.20;1.80;;;9.00;1.00;;;;;;4995773;28;20480;-80
2021/11/02 02:50:13;;;;;;;3.33;1.60;;;9.00;1.00;;;;;;5002197;28;20478;-81
2021/11/02 02:52:41;;;;;;;1.57;1.20;;;8.90;1.00;;;;;;5010135;28;20453;-80
2021/11/02 02:55:09;;;;;;;3.03;1.20;;;8.90;1.00;;;;;;4997341;28;20549;-81
2021/11/02 02:57:36;;;;;;;5.40;1.70;;;8.90;1.00;;;;;;5004584;28;20517;-80
2021/11/02 03:00:11;;;;;;;4.43;1.57;;;8.80;1.00;;;;;;4999619;28;20471;-82
2021/11/02 03:02:41;;;;;;;2.80;1.33;;;8.90;1.00;;;;;;5006388;28;20447;-81
2021/11/02 03:05:07;;;;;;;3.20;1.80;;;8.80;1.00;;;;;;5008384;28;21008;-81
2021/11/02 03:07:36;;;;;;;3.73;1.87;;;8.80;1.00;;;;;;5007266;28;20452;-80
2021/11/02 03:10:03;;;;;;;4.00;2.00;;;8.80;1.00;;;;;;5003307;28;21013;-80
2021/11/02 03:12:32;;;;;;;9.00;1.57;;;8.80;1.00;;;;;;5005962;28;20449;-81
2021/11/02 03:18:19;;;;;;;4.93;1.43;;;8.80;1.00;;;;;;5004629;28;20462;-81
2021/11/02 03:48:34;;;;;;;3.83;1.73;;;8.40;1.00;;;;;;5004987;28;20446;-81
2021/11/02 03:57:08;;;;;;;3.73;1.70;;;8.30;1.00;;;;;;4989165;28;20447;-80
2021/11/02 04:58:22;;;;;;;4.50;1.77;;;7.60;1.00;;;;;;4997095;28;20441;-81
2021/11/02 05:53:55;;;;;;;1.50;1.10;;;7.40;1.00;;;;;;4997131;28;20493;-80
2021/11/02 05:56:15;;;;;;;1.37;1.17;;;7.30;1.00;;;;;;4994637;28;20462;-80
2021/11/02 05:59:13;;;;;;;1.93;1.50;;;7.40;1.00;;;;;;5005706;28;20446;-80
2021/11/02 06:01:54;;;;;;;3.00;1.70;;;7.40;1.00;;;;;;5001379;28;20435;-81
2021/11/02 06:29:35;;;;;;;2.10;1.80;;;7.30;1.00;;;;;;5003140;28;20478;-81
2021/11/02 06:32:18;;;;;;;4.50;2.07;;;7.30;1.00;;;;;;5008122;28;20466;-81
2021/11/02 06:39:59;;;;;;;2.97;1.83;;;7.30;1.00;;;;;;5004057;28;20504;-79
2021/11/02 06:48:05;;;;;;;2.37;1.97;;;7.30;1.00;;;;;;4996282;28;20482;-80
2021/11/02 06:51:03;;;;;;;5.10;2.00;;;7.30;1.00;;;;;;5002280;28;20584;-79
2021/11/02 06:54:03;;;;;;;2.90;1.80;;;7.20;1.00;;;;;;5000335;28;20546;-79
2021/11/02 07:20:08;;;;;;;4.17;1.80;;;7.50;1.00;;;;;;4997105;28;20469;-80
2021/11/02 08:48:43;;;;;;;2.40;1.33;;;8.50;1.00;;;;;;4993923;28;20463;-79
2021/11/02 08:51:09;;;;;;;8.97;1.37;;;8.50;1.00;;;;;;4994024;28;20458;-79
2021/11/02 08:53:35;;;;;;;4.73;1.50;;;8.50;1.00;;;;;;4992437;28;20453;-80
2021/11/02 08:56:02;;;;;;;2.10;1.13;;;8.50;1.00;;;;;;4992340;28;20464;-79
2021/11/02 08:58:29;;;;;;;4.97;1.43;;;8.60;1.00;;;;;;4991994;28;20226;-79
2021/11/02 09:01:02;;;;;;;5.80;1.40;;;8.60;1.00;;;;;;4991441;28;20501;-79
2021/11/02 09:03:36;;;;;;;3.23;1.23;;;8.60;1.00;;;;;;4994447;28;20454;-79
2021/11/02 09:06:05;;;;;;;2.80;1.00;;;8.60;1.00;;;;;;5001222;28;20537;-79
2021/11/02 09:08:40;;;;;;;2.17;1.00;;;8.50;1.00;;;;;;5003173;28;20454;-79
2021/11/02 09:11:06;;;;;;;3.27;1.20;;;8.60;1.00;;;;;;5000079;28;20471;-80
2021/11/02 09:13:36;;;;;;;6.50;1.33;;;8.70;1.00;;;;;;4992213;28;21014;-80
2021/11/02 09:16:04;;;;;;;2.80;1.33;;;8.60;1.00;;;;;;5001162;28;21148;-79
2021/11/02 09:18:30;;;;;;;4.13;1.17;;;8.60;1.00;;;;;;5002976;28;20485;-79
2021/11/02 09:20:57;;;;;;;4.10;1.40;;;8.70;1.00;;;;;;5000598;28;20463;-79
2021/11/02 09:23:25;;;;;;;5.17;1.40;;;8.70;1.00;;;;;;5006029;28;20542;-79
2021/11/02 09:25:54;;;;;;;2.90;1.33;;;8.70;1.00;;;;;;4996883;28;20601;-79
2021/11/02 09:28:20;;;;;;;5.27;1.40;;;8.80;1.00;;;;;;5000321;28;20467;-79
2021/11/02 09:30:46;;;;;;;5.40;1.57;;;8.70;1.00;;;;;;4996136;28;20581;-80
2021/11/02 09:33:12;;;;;;;1.63;1.10;;;8.80;1.00;;;;;;4987367;28;20459;-80
2021/11/02 09:35:38;;;;;;;4.23;1.50;;;8.80;1.00;;;;;;4998201;28;20853;-79
2021/11/02 09:38:06;;;;;;;2.27;1.17;;;8.80;1.00;;;;;;4997100;28;20478;-78
2021/11/02 09:41:01;;;;;;;2.13;1.20;;;8.90;1.00;;;;;;4989886;28;21798;-79
2021/11/02 09:43:54;;;;;;;3.27;1.40;;;8.90;1.00;;;;;;4991621;28;20458;-78
2021/11/02 09:46:36;;;;;;;6.77;1.60;;;9.00;1.00;;;;;;4986313;28;20474;-81
2021/11/02 09:49:35;;;;;;;3.57;1.33;;;9.00;1.00;;;;;;4993253;28;20884;-79
2021/11/02 09:52:20;;;;;;;5.40;1.30;;;9.10;1.00;;;;;;4998628;28;20466;-79
2021/11/02 09:55:25;;;;;;;1.63;1.00;;;9.30;1.00;;;;;;5006832;28;21084;-80
2021/11/02 09:58:17;;;;;;;2.40;0.90;;;9.30;1.00;;;;;;5007009;28;20460;-78
2021/11/02 10:00:51;;;;;;;2.63;1.10;;;9.40;1.00;;;;;;5005599;28;20821;-80
2021/11/02 10:03:31;;;;;;;4.50;1.30;;;9.40;1.00;;;;;;5006854;28;20445;-79
2021/11/02 10:06:05;;;;;;;2.03;1.10;;;9.50;1.00;;;;;;5005360;28;20513;-79
2021/11/02 10:09:03;;;;;;;2.77;1.10;;;9.70;1.00;;;;;;5001712;28;20454;-80
2021/11/02 10:11:38;;;;;;;6.40;1.70;;;9.70;1.00;;;;;;5006588;28;20466;-79
2021/11/02 10:14:25;;;;;;;2.70;1.00;;;9.70;1.00;;;;;;5005910;28;20457;-79
2021/11/02 10:17:04;;;;;;;2.73;1.07;;;9.70;1.00;;;;;;5007545;28;20474;-80
2021/11/02 10:20:01;;;;;;;2.43;1.00;;;9.80;1.00;;;;;;5006096;28;21618;-80
2021/11/02 10:22:34;;;;;;;2.13;1.00;;;9.90;1.00;;;;;;5004172;28;20463;-80
2021/11/02 10:25:23;;;;;;;4.87;1.57;;;9.90;1.00;;;;;;4993825;28;20442;-80
2021/11/02 10:28:09;;;;;;;1.80;1.00;;;10.00;1.00;;;;;;4990104;28;20482;-79
2021/11/02 10:30:56;;;;;;;4.30;1.10;;;10.10;1.00;;;;;;4989867;28;20984;-79
2021/11/02 10:33:31;;;;;;;1.70;0.80;;;10.10;1.00;;;;;;5007258;28;20557;-80
2021/11/02 10:36:17;;;;;;;3.30;1.50;;;10.10;1.00;;;;;;5003129;28;20474;-80
2021/11/02 10:38:49;;;;;;;2.13;1.40;;;10.10;1.00;;;;;;4997046;28;21701;-80
2021/11/02 10:41:23;;;;;;;1.87;0.90;;;10.00;1.00;;;;;;5000827;28;20919;-80
2021/11/02 10:44:20;;;;;;;2.10;1.10;;;10.00;1.00;;;;;;5001945;28;20459;-80
2021/11/02 10:47:12;;;;;;;2.00;0.90;;;10.10;1.00;;;;;;5005117;28;20482;-80
2021/11/02 10:49:57;;;;;;;1.80;0.90;;;10.00;1.00;;;;;;5005431;28;20486;-79
2021/11/02 10:52:27;;;;;;;1.83;0.80;;;10.00;1.00;;;;;;5006379;28;20474;-79
2021/11/02 10:55:35;;;;;;;2.40;0.77;;;10.10;1.00;;;;;;5008644;28;20454;-79
2021/11/02 10:58:34;;;;;;;2.13;1.00;;;10.20;1.00;;;;;;4997865;28;21064;-79
2021/11/02 11:01:21;;;;;;;1.67;0.87;;;10.20;1.00;;;;;;5000445;28;20451;-79
2021/11/02 11:03:48;;;;;;;2.70;0.90;;;10.30;1.00;;;;;;5011865;28;20461;-80
2021/11/02 11:06:15;;;;;;;1.67;0.90;;;10.50;1.00;;;;;;5004966;28;20500;-80
2021/11/02 11:08:42;;;;;;;1.90;1.10;;;10.60;1.00;;;;;;5007872;28;20464;-80
2021/11/02 11:11:14;;;;;;;4.73;1.00;;;10.50;1.00;;;;;;5011692;28;20971;-81
2021/11/02 11:13:48;;;;;;;1.67;0.67;;;10.60;1.00;;;;;;5014932;28;20969;-80
2021/11/02 11:16:20;;;;;;;2.13;1.20;;;10.60;1.00;;;;;;5008953;28;21040;-80
2021/11/02 11:19:10;;;;;;;3.77;0.90;;;10.70;1.00;;;;;;5008816;28;20966;-80
2021/11/02 11:21:37;;;;;;;3.10;0.90;;;10.60;1.00;;;;;;5003433;28;20446;-80
2021/11/02 11:24:13;;;;;;;2.23;1.47;;;10.60;1.00;;;;;;5005328;28;20455;-80
2021/11/02 11:26:48;;;;;;;1.83;0.90;;;10.50;1.00;;;;;;5000418;28;20450;-80
2021/11/02 11:29:28;;;;;;;4.30;0.80;;;10.50;1.00;;;;;;4996507;28;20480;-80
2021/11/02 11:31:57;;;;;;;1.60;0.80;;;10.40;1.00;;;;;;5004343;28;20611;-80
2021/11/02 11:34:31;;;;;;;1.73;1.27;;;10.40;1.00;;;;;;5003559;28;20443;-81
2021/11/02 11:36:59;;;;;;;2.50;1.00;;;10.40;1.00;;;;;;4997401;28;20533;-80
2021/11/02 11:39:28;;;;;;;3.13;1.00;;;10.50;1.00;;;;;;5004044;28;20466;-80
2021/11/02 11:41:55;;;;;;;1.40;0.90;;;10.80;1.00;;;;;;4993689;28;20501;-80
2021/11/02 11:44:22;;;;;;;1.13;0.80;;;10.90;1.00;;;;;;4995074;28;20471;-80
2021/11/02 11:46:58;;;;;;;1.30;0.80;;;11.00;1.00;;;;;;4996894;28;20453;-80
2021/11/02 11:49:26;;;;;;;2.53;0.90;;;10.90;1.00;;;;;;4991209;28;20773;-79
2021/11/02 11:51:57;;;;;;;4.77;0.90;;;11.00;1.00;;;;;;4988763;28;21185;-78
2021/11/02 11:54:27;;;;;;;2.50;0.90;;;11.00;1.00;;;;;;5009522;28;20548;-79
2021/11/02 11:57:00;;;;;;;3.63;1.03;;;10.90;1.00;;;;;;5013682;28;20454;-79
2021/11/02 11:59:27;;;;;;;3.90;0.90;;;10.90;1.00;;;;;;5004946;28;20482;-79
2021/11/02 12:02:19;;;;;;;2.53;1.10;;;10.70;1.00;;;;;;5003791;28;20573;-79
2021/11/02 12:04:51;;;;;;;3.23;1.00;;;10.70;1.00;;;;;;5011355;28;20465;-80
2021/11/02 12:07:44;;;;;;;2.17;0.90;;;10.70;1.00;;;;;;5013975;28;20451;-80
2021/11/02 12:10:11;;;;;;;4.33;1.10;;;10.80;1.00;;;;;;5008000;28;20501;-80
2021/11/02 12:12:42;;;;;;;1.03;0.73;;;10.80;1.00;;;;;;5007153;28;21397;-80
2021/11/02 12:15:17;;;;;;;2.30;0.83;;;10.80;1.00;;;;;;5011608;28;20446;-80
2021/11/02 12:17:45;;;;;;;3.63;0.90;;;10.80;1.00;;;;;;5006177;28;20456;-79
2021/11/02 12:20:13;;;;;;;2.30;1.00;;;10.70;1.00;;;;;;5011026;28;20470;-78
2021/11/02 12:22:42;;;;;;;1.43;0.83;;;10.60;1.00;;;;;;5007261;28;20461;-79
2021/11/02 12:25:10;;;;;;;3.70;0.80;;;10.60;1.00;;;;;;5009977;28;20451;-79
2021/11/02 12:27:43;;;;;;;2.33;0.70;;;10.60;1.00;;;;;;5007458;28;20972;-80
2021/11/02 12:30:18;;;;;;;1.40;0.70;;;10.60;1.00;;;;;;5009787;28;20501;-80
2021/11/02 12:32:46;;;;;;;2.63;0.73;;;10.60;1.00;;;;;;5000411;28;20446;-80
2021/11/02 12:35:41;;;;;;;1.67;0.80;;;10.60;1.00;;;;;;5005320;28;20457;-79
2021/11/02 12:38:08;;;;;;;2.17;0.70;;;10.60;1.00;;;;;;4999665;28;20493;-80
2021/11/02 12:40:37;;;;;;;1.60;0.80;;;10.60;1.00;;;;;;5000402;28;20443;-80
2021/11/02 12:43:04;;;;;;;1.40;0.70;;;10.70;1.00;;;;;;5002882;28;20454;-80
2021/11/02 12:45:39;;;;;;;1.83;0.70;;;10.80;1.00;;;;;;4999032;28;20970;-80
2021/11/02 12:48:10;;;;;;;1.20;0.70;;;10.90;1.00;;;;;;5004974;28;20454;-80
2021/11/02 12:50:39;;;;;;;2.30;0.73;;;10.80;1.00;;;;;;5001991;28;20484;-80
2021/11/02 12:53:05;;;;;;;1.00;0.60;;;10.80;1.00;;;;;;5009637;28;20525;-80
2021/11/02 12:55:32;;;;;;;0.90;0.50;;;10.70;1.00;;;;;;5010241;28;20457;-80
2021/11/02 12:58:07;;;;;;;3.93;1.93;;;10.60;1.00;;;;;;5008490;28;21822;-80
2021/11/02 13:00:52;;;;;;;1.00;0.63;;;10.60;1.00;;;;;;5000065;28;20469;-80
2021/11/02 13:03:23;;;;;;;1.43;0.70;;;10.50;1.00;;;;;;4994556;28;21292;-78
2021/11/02 13:06:08;;;;;;;2.70;0.80;;;10.60;1.00;;;;;;5002292;28;20450;-80
2021/11/02 13:08:54;;;;;;;1.20;0.80;;;10.60;1.00;;;;;;4995002;28;20537;-78
2021/11/02 13:11:21;;;;;;;2.03;0.90;;;10.70;1.00;;;;;;5003562;28;20482;-79
2021/11/02 13:14:10;;;;;;;1.00;0.70;;;10.70;1.00;;;;;;5003537;28;20465;-78
2021/11/02 13:16:57;;;;;;;1.70;0.70;;;10.60;1.00;;;;;;5005060;28;21532;-79
2021/11/02 13:19:30;;;;;;;4.40;0.87;;;10.70;1.00;;;;;;5012621;28;20491;-79
2021/11/02 13:22:06;;;;;;;1.67;0.70;;;10.60;1.00;;;;;;5013963;28;20450;-78
2021/11/02 13:24:31;;;;;;;1.77;0.80;;;10.60;1.00;;;;;;5018615;28;20515;-79
2021/11/02 13:26:57;;;;;;;1.10;0.60;;;10.70;1.00;;;;;;5013721;28;20443;-79
2021/11/02 13:29:26;;;;;;;1.40;0.60;;;10.70;1.00;;;;;;5013994;28;20212;-79
2021/11/02 13:31:53;;;;;;;1.00;0.70;;;10.70;1.00;;;;;;5001544;28;20199;-79
2021/11/02 13:34:39;;;;;;;4.03;1.00;;;10.70;1.00;;;;;;5010031;28;20513;-79
2021/11/02 13:37:11;;;;;;;2.63;1.07;;;10.70;1.00;;;;;;5006990;28;20473;-79
2021/11/02 13:39:58;;;;;;;1.50;0.70;;;10.60;1.00;;;;;;5001987;28;20810;-79
2021/11/02 13:42:46;;;;;;;1.07;0.70;;;10.60;1.00;;;;;;5005126;28;20457;-79
2021/11/02 13:45:15;;;;;;;1.73;0.80;;;10.80;1.00;;;;;;5008297;28;20565;-79
2021/11/02 13:47:43;;;;;;;1.30;0.80;;;10.70;1.00;;;;;;5007647;28;21065;-78
2021/11/02 13:50:09;;;;;;;4.73;1.00;;;10.80;1.00;;;;;;4999784;28;20520;-79
2021/11/02 13:52:35;;;;;;;1.70;1.30;;;10.80;1.00;;;;;;4996949;28;20454;-80
2021/11/02 13:55:04;;;;;;;1.30;0.90;;;10.80;1.00;;;;;;5007278;28;20455;-80
2021/11/02 13:57:29;;;;;;;2.37;0.80;;;10.80;1.00;;;;;;5005259;28;20555;-80
2021/11/02 13:59:55;;;;;;;1.83;0.90;;;10.90;1.00;;;;;;5008068;28;20455;-80
2021/11/02 14:02:24;;;;;;;2.23;1.00;;;10.90;1.00;;;;;;5001174;28;20203;-80
2021/11/02 14:04:51;;;;;;;2.40;0.90;;;11.00;1.00;;;;;;4996185;28;20638;-80
2021/11/02 14:07:22;;;;;;;1.30;0.87;;;11.10;1.00;;;;;;5005425;28;20440;-79
2021/11/02 14:09:58;;;;;;;1.10;0.87;;;11.10;1.00;;;;;;5000884;28;20502;-79
2021/11/02 14:12:30;;;;;;;1.30;0.80;;;11.00;1.00;;;;;;5004438;28;20442;-79
2021/11/02 14:15:11;;;;;;;1.67;1.13;;;10.90;1.00;;;;;;5007189;28;20438;-79
2021/11/02 14:17:38;;;;;;;1.67;0.80;;;10.90;1.00;;;;;;5003694;28;20465;-80
2021/11/02 14:20:04;;;;;;;1.63;1.00;;;10.80;1.00;;;;;;5006785;28;20508;-79
2021/11/02 14:22:47;;;;;;;2.00;0.90;;;10.80;1.00;;;;;;5006011;28;20474;-80
2021/11/02 14:25:20;;;;;;;2.07;0.70;;;10.80;1.00;;;;;;5005569;28;20442;-81
2021/11/02 14:27:51;;;;;;;1.87;1.00;;;10.70;1.00;;;;;;5004714;28;20458;-79
2021/11/02 14:30:37;;;;;;;5.53;1.00;;;10.70;1.00;;;;;;4997437;28;22077;-80
2021/11/02 14:33:10;;;;;;;1.77;0.90;;;10.60;1.00;;;;;;5010952;28;20465;-78
2021/11/02 14:35:55;;;;;;;2.03;1.03;;;10.50;1.00;;;;;;5011850;28;20548;-78
2021/11/02 14:38:22;;;;;;;2.27;0.80;;;10.50;1.00;;;;;;5008413;28;20485;-79
2021/11/02 14:40:48;;;;;;;1.20;1.00;;;10.50;1.00;;;;;;5007306;28;20442;-79
2021/11/02 14:43:19;;;;;;;2.23;1.07;;;10.60;1.00;;;;;;5013434;28;21435;-79
2021/11/02 14:45:54;;;;;;;1.60;0.80;;;10.50;1.00;;;;;;5014255;28;20458;-79
2021/11/02 14:48:36;;;;;;;1.37;1.10;;;10.50;1.00;;;;;;5009824;28;21157;-79
2021/11/02 14:51:28;;;;;;;4.20;0.97;;;10.50;1.00;;;;;;5009263;28;20581;-79
2021/11/02 14:53:55;;;;;;;3.73;1.10;;;10.40;1.00;;;;;;5001869;28;20465;-79
2021/11/02 14:56:21;;;;;;;4.63;1.57;;;10.40;1.00;;;;;;5002613;28;21144;-80
2021/11/02 14:58:50;;;;;;;1.90;0.90;;;10.30;1.00;;;;;;4998093;28;20442;-79
2021/11/02 15:01:39;;;;;;;5.77;1.13;;;10.30;1.00;;;;;;4989420;28;24349;-79
2021/11/02 15:04:19;;;;;;;2.67;1.30;;;10.30;1.00;;;;;;4993540;28;23478;-79
2021/11/02 15:06:55;;;;;;;1.30;0.93;;;10.30;1.00;;;;;;4990143;28;20457;-79
2021/11/02 15:09:23;;;;;;;2.50;0.90;;;10.30;1.00;;;;;;5009641;28;20512;-79
2021/11/02 15:11:51;;;;;;;2.90;1.30;;;10.20;1.00;;;;;;5007001;28;21148;-80
2021/11/02 15:14:21;;;;;;;3.10;1.00;;;10.10;1.00;;;;;;4999357;28;20449;-79
2021/11/02 15:16:51;;;;;;;1.77;0.90;;;10.10;1.00;;;;;;5011025;28;20461;-81
2021/11/02 15:19:18;;;;;;;2.30;0.93;;;10.10;1.00;;;;;;5008538;28;20503;-79
2021/11/02 15:21:51;;;;;;;2.20;0.87;;;10.00;1.00;;;;;;5005359;28;21095;-78
2021/11/02 15:24:22;;;;;;;1.50;0.90;;;10.00;1.00;;;;;;4998922;28;20446;-79
2021/11/02 15:27:06;;;;;;;3.00;0.93;;;9.90;1.00;;;;;;5005620;28;20442;-79
2021/11/02 15:29:38;;;;;;;3.10;1.13;;;9.90;1.00;;;;;;5007985;28;20488;-79
2021/11/02 15:32:18;;;;;;;1.20;0.90;;;9.80;1.00;;;;;;5006347;28;20796;-80
2021/11/02 15:34:52;;;;;;;1.27;0.93;;;9.80;1.00;;;;;;5005425;28;20474;-78
2021/11/02 15:37:27;;;;;;;1.57;1.10;;;9.70;1.00;;;;;;5004947;28;20442;-79
2021/11/02 15:40:03;;;;;;;1.03;0.90;;;9.70;1.00;;;;;;5012625;28;20453;-79
2021/11/02 15:42:38;;;;;;;6.83;1.00;;;9.60;1.00;;;;;;5009835;28;20481;-79
2021/11/02 15:45:17;;;;;;;1.20;0.80;;;9.60;1.00;;;;;;5007424;28;20497;-79
2021/11/02 15:47:52;;;;;;;2.90;1.30;;;9.40;1.00;;;;;;5003939;28;20469;-80
2021/11/02 15:50:24;;;;;;;1.10;0.90;;;9.30;1.00;;;;;;5008502;28;20494;-80
2021/11/02 15:52:55;;;;;;;2.20;0.90;;;9.20;1.00;;;;;;5010295;28;20536;-80
2021/11/02 15:55:24;;;;;;;0.97;0.70;;;9.20;1.00;;;;;;5000601;28;20466;-79
2021/11/02 15:57:54;;;;;;;5.17;1.00;;;9.10;1.00;;;;;;5003206;28;20625;-80
2021/11/02 16:00:31;;;;;;;1.40;0.90;;;9.10;1.00;;;;;;4991215;28;20462;-80
2021/11/02 16:02:58;;;;;;;1.00;0.70;;;9.00;1.00;;;;;;4989091;28;20621;-79
2021/11/02 16:05:26;;;;;;;3.03;1.00;;;9.00;1.00;;;;;;4996586;28;20532;-79
2021/11/02 16:07:56;;;;;;;2.00;0.97;;;9.00;1.00;;;;;;4995939;28;20952;-77
2021/11/02 16:10:32;;;;;;;1.37;1.00;;;9.00;1.00;;;;;;4998683;28;21120;-78
2021/11/02 16:13:04;;;;;;;1.40;0.90;;;9.00;1.00;;;;;;5004795;28;20486;-78
2021/11/02 16:15:34;;;;;;;3.00;0.70;;;9.00;1.00;;;;;;5018330;28;20459;-78
2021/11/02 16:18:15;;;;;;;1.23;0.83;;;9.00;1.00;;;;;;5014320;28;20462;-78
2021/11/02 16:20:42;;;;;;;1.37;0.93;;;8.90;1.00;;;;;;5007664;28;20442;-79
2021/11/02 16:23:16;;;;;;;2.47;1.13;;;8.90;1.00;;;;;;5010409;28;20830;-79
2021/11/02 16:25:47;;;;;;;1.30;0.90;;;8.90;1.00;;;;;;5013067;28;20844;-80
2021/11/02 16:28:22;;;;;;;1.73;1.10;;;8.90;1.00;;;;;;5020543;28;20555;-80
2021/11/02 16:30:54;;;;;;;1.67;0.87;;;8.90;1.00;;;;;;5014981;28;20485;-79
2021/11/02 16:33:30;;;;;;;1.10;0.90;;;8.90;1.00;;;;;;5003446;28;20523;-79
2021/11/02 16:35:56;;;;;;;3.23;0.90;;;9.00;1.00;;;;;;5011278;28;20486;-79
2021/11/02 16:38:35;;;;;;;1.30;0.80;;;9.00;1.00;;;;;;5016034;28;21200;-79
2021/11/02 16:41:18;;;;;;;2.73;1.30;;;9.00;1.00;;;;;;5007386;28;20364;-80
2021/11/02 16:43:52;;;;;;;7.10;1.33;;;9.00;1.00;;;;;;4998449;28;20935;-77
2021/11/02 16:46:40;;;;;;;1.93;1.10;;;9.00;1.00;;;;;;4998755;28;20478;-79
2021/11/02 16:49:10;;;;;;;2.40;1.40;;;8.90;1.00;;;;;;4998328;28;20469;-78
2021/11/02 16:51:55;;;;;;;2.60;1.33;;;8.90;1.00;;;;;;4999548;28;20454;-78
2021/11/02 16:54:33;;;;;;;1.77;1.63;;;8.90;1.00;;;;;;4995559;28;20458;-79
2021/11/02 16:57:12;;;;;;;1.30;1.10;;;8.90;1.00;;;;;;4998594;28;20854;-79
2021/11/02 16:59:49;;;;;;;2.50;1.40;;;8.80;1.00;;;;;;4995982;28;20957;-79
2021/11/02 17:02:20;;;;;;;1.73;1.37;;;8.80;1.00;;;;;;4990580;28;20500;-79
2021/11/02 17:05:24;;;;;;;2.03;1.53;;;8.80;1.00;;;;;;4987641;28;20469;-80
2021/11/02 17:08:02;;;;;;;2.20;1.57;;;8.70;1.00;;;;;;4992515;28;21027;-79
2021/11/02 17:10:42;;;;;;;1.43;0.97;;;8.80;1.00;;;;;;5001869;28;20540;-78
2021/11/02 17:13:24;;;;;;;3.43;1.27;;;8.80;1.00;;;;;;5000797;28;20474;-78
2021/11/02 17:15:58;;;;;;;3.33;1.17;;;8.80;1.00;;;;;;4996695;28;20486;-78
2021/11/02 17:18:31;;;;;;;1.20;1.10;;;8.80;1.00;;;;;;5002917;28;20483;-78
2021/11/02 17:21:03;;;;;;;2.10;1.00;;;8.70;1.00;;;;;;5004531;28;20485;-79
2021/11/02 17:23:29;;;;;;;3.07;1.00;;;8.80;1.00;;;;;;4999370;28;20467;-80
2021/11/02 17:25:55;;;;;;;1.60;1.20;;;8.80;1.00;;;;;;5008901;28;20450;-79
2021/11/02 17:28:21;;;;;;;1.70;1.30;;;8.80;1.00;;;;;;5004365;28;20180;-80
2021/11/02 17:30:47;;;;;;;1.60;1.20;;;8.80;1.00;;;;;;5001789;28;21014;-80
2021/11/02 17:33:15;;;;;;;2.30;1.53;;;8.80;1.00;;;;;;4993737;28;21113;-80
2021/11/02 17:35:42;;;;;;;1.70;1.33;;;8.70;1.00;;;;;;4994817;28;20805;-79
2021/11/02 17:38:13;;;;;;;4.70;1.17;;;8.70;1.00;;;;;;5003947;28;20461;-79
2021/11/02 17:40:40;;;;;;;1.30;1.10;;;8.70;1.00;;;;;;4997102;28;20988;-78
2021/11/02 17:43:07;;;;;;;2.23;1.70;;;8.70;1.00;;;;;;4999157;28;20489;-80
2021/11/02 17:45:33;;;;;;;2.47;1.17;;;8.60;1.00;;;;;;5001731;28;20807;-79
2021/11/02 17:47:59;;;;;;;1.83;1.63;;;8.60;1.00;;;;;;5002252;28;20501;-79
2021/11/02 17:50:27;;;;;;;2.63;2.00;;;8.60;1.00;;;;;;5017093;28;21134;-80
2021/11/02 17:52:56;;;;;;;2.70;1.83;;;8.60;1.00;;;;;;5003216;28;20480;-79
2021/11/02 17:55:23;;;;;;;2.07;1.87;;;8.60;1.00;;;;;;5006836;28;20496;-79
2021/11/02 17:57:52;;;;;;;2.37;1.73;;;8.50;1.00;;;;;;5006138;28;20454;-79
2021/11/02 18:00:20;;;;;;;3.03;2.40;;;8.50;1.00;;;;;;4998392;28;20544;-79
2021/11/02 18:02:49;;;;;;;5.23;2.07;;;8.40;1.00;;;;;;4996705;28;20977;-80
2021/11/02 18:05:15;;;;;;;2.90;2.23;;;8.40;1.00;;;;;;5001735;28;20458;-80
2021/11/02 18:07:41;;;;;;;4.00;2.43;;;8.30;1.00;;;;;;5003561;28;20446;-80
2021/11/02 18:10:09;;;;;;;3.50;2.27;;;8.30;1.00;;;;;;5001964;28;20501;-80
2021/11/02 18:12:37;;;;;;;3.33;2.50;;;8.20;1.00;;;;;;5002011;28;20204;-80
2021/11/02 18:15:05;;;;;;;7.00;2.70;;;8.20;1.00;;;;;;5004117;28;20493;-80
2021/11/02 18:17:33;;;;;;;4.97;3.13;;;8.30;1.00;;;;;;5003208;28;20463;-80
2021/11/02 18:20:01;;;;;;;3.47;2.90;;;8.20;1.00;;;;;;5006619;28;21192;-79
2021/11/02 18:22:26;;;;;;;3.90;2.40;;;8.20;1.00;;;;;;5000933;28;20451;-79
2021/11/02 18:24:54;;;;;;;5.07;2.90;;;8.30;1.00;;;;;;4995250;28;20484;-78
2021/11/02 18:27:21;;;;;;;3.70;3.03;;;8.30;1.00;;;;;;4997404;28;20761;-79
2021/11/02 18:29:51;;;;;;;4.80;2.97;;;8.20;1.00;;;;;;4993786;28;20594;-79